sensor_id;sensor_type;location;lat;lon;timestamp;P1;durP1;ratioP1;P2;durP2;ratioP2
11582;SDS011;34299;50.820;4.548;2022-08-03T00:01:10;2.03;;;0.93;;
11582;SDS011;34299;50.820;4.548;2022-08-03T00:03:43;1.30;;;0.90;;
11582;SDS011;34299;50.820;4.548;2022-08-03T00:06:10;1.40;;;0.80;;
11582;SDS011;34299;50.820;4.548;2022-08-03T00:08:38;3.93;;;1.00;;
11582;SDS011;34299;50.820;4.548;2022-08-03T00:11:05;1.10;;;1.00;;
11582;SDS011;34299;50.820;4.548;2022-08-03T00:13:32;2.73;;;1.23;;
11582;SDS011;34299;50.820;4.548;2022-08-03T00:15:59;3.17;;;1.10;;
11582;SDS011;34299;50.820;4.548;2022-08-03T00:18:27;1.83;;;0.93;;
11582;SDS011;34299;50.820;4.548;2022-08-03T00:20:55;5.73;;;1.07;;
11582;SDS011;34299;50.820;4.548;2022-08-03T00:23:22;1.40;;;0.70;;
11582;SDS011;34299;50.820;4.548;2022-08-03T00:25:50;2.60;;;1.07;;
11582;SDS011;34299;50.820;4.548;2022-08-03T00:28:17;2.03;;;0.97;;
11582;SDS011;34299;50.820;4.548;2022-08-03T00:30:44;2.50;;;1.10;;
11582;SDS011;34299;50.820;4.548;2022-08-03T00:33:12;1.07;;;0.77;;
11582;SDS011;34299;50.820;4.548;2022-08-03T00:35:39;2.90;;;0.90;;
11582;SDS011;34299;50.820;4.548;2022-08-03T00:38:07;1.47;;;0.80;;
11582;SDS011;34299;50.820;4.548;2022-08-03T00:40:35;2.60;;;2.07;;
11582;SDS011;34299;50.820;4.548;2022-08-03T00:43:02;1.77;;;1.00;;
11582;SDS011;34299;50.820;4.548;2022-08-03T00:45:30;0.93;;;0.83;;
11582;SDS011;34299;50.820;4.548;2022-08-03T00:47:58;1.13;;;0.93;;
11582;SDS011;34299;50.820;4.548;2022-08-03T00:50:26;1.53;;;0.80;;
11582;SDS011;34299;50.820;4.548;2022-08-03T00:52:55;2.67;;;1.13;;
11582;SDS011;34299;50.820;4.548;2022-08-03T00:55:24;2.73;;;1.50;;
11582;SDS011;34299;50.820;4.548;2022-08-03T00:57:52;2.40;;;1.10;;
11582;SDS011;34299;50.820;4.548;2022-08-03T01:00:19;3.50;;;1.20;;
11582;SDS011;34299;50.820;4.548;2022-08-03T01:02:47;1.83;;;1.00;;
11582;SDS011;34299;50.820;4.548;2022-08-03T01:05:15;1.67;;;1.00;;
11582;SDS011;34299;50.820;4.548;2022-08-03T01:07:45;1.63;;;1.10;;
11582;SDS011;34299;50.820;4.548;2022-08-03T01:10:16;1.70;;;1.07;;
11582;SDS011;34299;50.820;4.548;2022-08-03T01:12:50;2.20;;;0.87;;
11582;SDS011;34299;50.820;4.548;2022-08-03T01:15:20;1.60;;;1.10;;
11582;SDS011;34299;50.820;4.548;2022-08-03T01:17:50;1.43;;;1.00;;
11582;SDS011;34299;50.820;4.548;2022-08-03T01:20:19;1.43;;;1.03;;
11582;SDS011;34299;50.820;4.548;2022-08-03T01:22:56;2.37;;;1.10;;
11582;SDS011;34299;50.820;4.548;2022-08-03T01:25:30;4.10;;;1.30;;
11582;SDS011;34299;50.820;4.548;2022-08-03T01:28:06;4.40;;;1.20;;
11582;SDS011;34299;50.820;4.548;2022-08-03T01:30:40;3.17;;;1.00;;
11582;SDS011;34299;50.820;4.548;2022-08-03T01:33:10;5.20;;;1.50;;
11582;SDS011;34299;50.820;4.548;2022-08-03T01:35:40;1.23;;;1.10;;
11582;SDS011;34299;50.820;4.548;2022-08-03T01:38:10;1.20;;;1.10;;
11582;SDS011;34299;50.820;4.548;2022-08-03T01:40:38;1.67;;;1.10;;
11582;SDS011;34299;50.820;4.548;2022-08-03T01:43:06;2.73;;;1.20;;
11582;SDS011;34299;50.820;4.548;2022-08-03T01:45:34;3.17;;;1.10;;
11582;SDS011;34299;50.820;4.548;2022-08-03T01:48:04;2.20;;;1.10;;
11582;SDS011;34299;50.820;4.548;2022-08-03T01:50:32;4.70;;;1.37;;
11582;SDS011;34299;50.820;4.548;2022-08-03T01:53:00;0.90;;;0.90;;
11582;SDS011;34299;50.820;4.548;2022-08-03T01:55:27;1.60;;;1.23;;
11582;SDS011;34299;50.820;4.548;2022-08-03T01:57:56;2.60;;;1.30;;
11582;SDS011;34299;50.820;4.548;2022-08-03T02:00:27;2.87;;;1.30;;
11582;SDS011;34299;50.820;4.548;2022-08-03T02:02:54;3.13;;;1.47;;
11582;SDS011;34299;50.820;4.548;2022-08-03T02:05:23;2.37;;;1.30;;
11582;SDS011;34299;50.820;4.548;2022-08-03T02:07:50;2.07;;;1.07;;
11582;SDS011;34299;50.820;4.548;2022-08-03T02:10:20;3.80;;;1.30;;
11582;SDS011;34299;50.820;4.548;2022-08-03T02:12:48;2.87;;;1.30;;
11582;SDS011;34299;50.820;4.548;2022-08-03T02:15:16;1.27;;;1.17;;
11582;SDS011;34299;50.820;4.548;2022-08-03T02:17:45;1.53;;;1.20;;
11582;SDS011;34299;50.820;4.548;2022-08-03T02:20:13;1.33;;;1.13;;
11582;SDS011;34299;50.820;4.548;2022-08-03T02:22:42;3.13;;;1.13;;
11582;SDS011;34299;50.820;4.548;2022-08-03T02:25:10;3.03;;;1.37;;
11582;SDS011;34299;50.820;4.548;2022-08-03T02:27:40;1.40;;;1.10;;
11582;SDS011;34299;50.820;4.548;2022-08-03T02:30:09;2.13;;;1.00;;
11582;SDS011;34299;50.820;4.548;2022-08-03T02:32:39;2.03;;;0.97;;
11582;SDS011;34299;50.820;4.548;2022-08-03T02:35:08;2.03;;;1.30;;
11582;SDS011;34299;50.820;4.548;2022-08-03T02:37:42;2.70;;;1.53;;
11582;SDS011;34299;50.820;4.548;2022-08-03T02:40:12;3.90;;;1.50;;
11582;SDS011;34299;50.820;4.548;2022-08-03T02:42:39;1.50;;;1.03;;
11582;SDS011;34299;50.820;4.548;2022-08-03T02:45:08;2.23;;;1.30;;
11582;SDS011;34299;50.820;4.548;2022-08-03T02:47:38;3.43;;;1.53;;
11582;SDS011;34299;50.820;4.548;2022-08-03T02:50:06;2.73;;;1.27;;
11582;SDS011;34299;50.820;4.548;2022-08-03T02:52:35;1.60;;;0.93;;
11582;SDS011;34299;50.820;4.548;2022-08-03T02:55:02;2.63;;;1.57;;
11582;SDS011;34299;50.820;4.548;2022-08-03T02:57:31;4.20;;;1.30;;
11582;SDS011;34299;50.820;4.548;2022-08-03T03:00:01;1.63;;;1.30;;
11582;SDS011;34299;50.820;4.548;2022-08-03T03:02:28;1.87;;;1.50;;
11582;SDS011;34299;50.820;4.548;2022-08-03T03:04:55;2.80;;;1.23;;
11582;SDS011;34299;50.820;4.548;2022-08-03T03:07:23;1.77;;;1.30;;
11582;SDS011;34299;50.820;4.548;2022-08-03T03:09:52;1.03;;;0.97;;
11582;SDS011;34299;50.820;4.548;2022-08-03T03:12:20;1.20;;;1.00;;
11582;SDS011;34299;50.820;4.548;2022-08-03T03:14:49;2.90;;;1.30;;
11582;SDS011;34299;50.820;4.548;2022-08-03T03:17:16;2.07;;;1.37;;
11582;SDS011;34299;50.820;4.548;2022-08-03T03:19:44;4.47;;;1.40;;
11582;SDS011;34299;50.820;4.548;2022-08-03T03:22:12;1.83;;;1.10;;
11582;SDS011;34299;50.820;4.548;2022-08-03T03:24:40;1.53;;;1.23;;
11582;SDS011;34299;50.820;4.548;2022-08-03T03:27:07;1.60;;;1.30;;
11582;SDS011;34299;50.820;4.548;2022-08-03T03:29:35;4.03;;;1.30;;
11582;SDS011;34299;50.820;4.548;2022-08-03T03:32:05;2.73;;;1.20;;
11582;SDS011;34299;50.820;4.548;2022-08-03T03:34:32;1.83;;;1.20;;
11582;SDS011;34299;50.820;4.548;2022-08-03T03:37:00;2.23;;;1.30;;
11582;SDS011;34299;50.820;4.548;2022-08-03T03:39:27;5.40;;;1.37;;
11582;SDS011;34299;50.820;4.548;2022-08-03T03:41:54;3.93;;;1.70;;
11582;SDS011;34299;50.820;4.548;2022-08-03T03:44:25;4.13;;;1.27;;
11582;SDS011;34299;50.820;4.548;2022-08-03T03:46:52;6.00;;;1.53;;
11582;SDS011;34299;50.820;4.548;2022-08-03T03:49:21;1.70;;;1.20;;
11582;SDS011;34299;50.820;4.548;2022-08-03T03:51:50;2.40;;;1.30;;
11582;SDS011;34299;50.820;4.548;2022-08-03T03:54:18;2.90;;;1.60;;
11582;SDS011;34299;50.820;4.548;2022-08-03T03:56:46;2.60;;;1.77;;
11582;SDS011;34299;50.820;4.548;2022-08-03T03:59:13;2.53;;;1.33;;
11582;SDS011;34299;50.820;4.548;2022-08-03T04:01:41;4.40;;;1.50;;
11582;SDS011;34299;50.820;4.548;2022-08-03T04:04:08;1.50;;;1.23;;
11582;SDS011;34299;50.820;4.548;2022-08-03T04:06:55;4.03;;;1.60;;
11582;SDS011;34299;50.820;4.548;2022-08-03T04:09:39;1.80;;;1.70;;
11582;SDS011;34299;50.820;4.548;2022-08-03T04:12:25;2.00;;;1.37;;
11582;SDS011;34299;50.820;4.548;2022-08-03T04:14:54;7.23;;;1.60;;
11582;SDS011;34299;50.820;4.548;2022-08-03T04:17:22;1.70;;;1.60;;
11582;SDS011;34299;50.820;4.548;2022-08-03T04:19:52;1.87;;;1.13;;
11582;SDS011;34299;50.820;4.548;2022-08-03T04:22:21;1.70;;;1.30;;
11582;SDS011;34299;50.820;4.548;2022-08-03T04:24:50;3.73;;;1.33;;
11582;SDS011;34299;50.820;4.548;2022-08-03T04:27:20;3.83;;;1.53;;
11582;SDS011;34299;50.820;4.548;2022-08-03T04:29:48;4.50;;;1.80;;
11582;SDS011;34299;50.820;4.548;2022-08-03T04:32:15;3.87;;;1.77;;
11582;SDS011;34299;50.820;4.548;2022-08-03T04:34:44;3.27;;;1.87;;
11582;SDS011;34299;50.820;4.548;2022-08-03T04:37:12;4.60;;;1.67;;
11582;SDS011;34299;50.820;4.548;2022-08-03T04:39:42;2.87;;;1.50;;
11582;SDS011;34299;50.820;4.548;2022-08-03T04:42:10;5.77;;;1.50;;
11582;SDS011;34299;50.820;4.548;2022-08-03T04:44:40;3.00;;;1.47;;
11582;SDS011;34299;50.820;4.548;2022-08-03T04:47:07;4.53;;;1.70;;
11582;SDS011;34299;50.820;4.548;2022-08-03T04:49:35;5.67;;;2.13;;
11582;SDS011;34299;50.820;4.548;2022-08-03T04:52:03;3.70;;;1.37;;
11582;SDS011;34299;50.820;4.548;2022-08-03T04:54:37;3.23;;;1.60;;
11582;SDS011;34299;50.820;4.548;2022-08-03T04:57:06;2.43;;;1.73;;
11582;SDS011;34299;50.820;4.548;2022-08-03T04:59:33;1.83;;;1.53;;
11582;SDS011;34299;50.820;4.548;2022-08-03T05:02:00;2.43;;;1.60;;
11582;SDS011;34299;50.820;4.548;2022-08-03T05:04:28;4.10;;;1.63;;
11582;SDS011;34299;50.820;4.548;2022-08-03T05:06:55;2.63;;;1.70;;
11582;SDS011;34299;50.820;4.548;2022-08-03T05:09:22;4.40;;;1.60;;
11582;SDS011;34299;50.820;4.548;2022-08-03T05:11:49;2.73;;;1.30;;
11582;SDS011;34299;50.820;4.548;2022-08-03T05:14:19;3.33;;;1.50;;
11582;SDS011;34299;50.820;4.548;2022-08-03T05:16:46;1.77;;;1.47;;
11582;SDS011;34299;50.820;4.548;2022-08-03T05:19:13;4.27;;;2.10;;
11582;SDS011;34299;50.820;4.548;2022-08-03T05:21:40;4.00;;;1.67;;
11582;SDS011;34299;50.820;4.548;2022-08-03T05:24:07;3.97;;;1.80;;
11582;SDS011;34299;50.820;4.548;2022-08-03T05:26:35;3.63;;;1.97;;
11582;SDS011;34299;50.820;4.548;2022-08-03T05:29:02;6.43;;;1.70;;
11582;SDS011;34299;50.820;4.548;2022-08-03T05:31:30;2.40;;;1.93;;
11582;SDS011;34299;50.820;4.548;2022-08-03T05:33:58;2.90;;;1.80;;
11582;SDS011;34299;50.820;4.548;2022-08-03T05:36:25;2.30;;;1.87;;
11582;SDS011;34299;50.820;4.548;2022-08-03T05:38:52;3.80;;;2.10;;
11582;SDS011;34299;50.820;4.548;2022-08-03T05:41:19;2.83;;;1.97;;
11582;SDS011;34299;50.820;4.548;2022-08-03T05:43:47;3.07;;;1.50;;
11582;SDS011;34299;50.820;4.548;2022-08-03T05:46:14;2.13;;;1.90;;
11582;SDS011;34299;50.820;4.548;2022-08-03T05:48:42;3.40;;;1.90;;
11582;SDS011;34299;50.820;4.548;2022-08-03T05:51:10;4.70;;;1.60;;
11582;SDS011;34299;50.820;4.548;2022-08-03T05:53:37;2.20;;;1.60;;
11582;SDS011;34299;50.820;4.548;2022-08-03T05:56:05;2.73;;;1.77;;
11582;SDS011;34299;50.820;4.548;2022-08-03T05:58:32;3.97;;;1.60;;
11582;SDS011;34299;50.820;4.548;2022-08-03T06:00:59;1.67;;;1.23;;
11582;SDS011;34299;50.820;4.548;2022-08-03T06:03:26;2.83;;;1.80;;
11582;SDS011;34299;50.820;4.548;2022-08-03T06:05:55;2.07;;;1.40;;
11582;SDS011;34299;50.820;4.548;2022-08-03T06:08:22;3.13;;;1.50;;
11582;SDS011;34299;50.820;4.548;2022-08-03T06:10:50;3.03;;;1.60;;
11582;SDS011;34299;50.820;4.548;2022-08-03T06:13:17;4.43;;;2.00;;
11582;SDS011;34299;50.820;4.548;2022-08-03T06:15:44;2.73;;;1.67;;
11582;SDS011;34299;50.820;4.548;2022-08-03T06:18:12;1.70;;;1.40;;
11582;SDS011;34299;50.820;4.548;2022-08-03T06:20:39;3.90;;;1.70;;
11582;SDS011;34299;50.820;4.548;2022-08-03T06:23:07;4.00;;;1.60;;
11582;SDS011;34299;50.820;4.548;2022-08-03T06:25:35;3.20;;;1.70;;
11582;SDS011;34299;50.820;4.548;2022-08-03T06:28:02;1.97;;;1.40;;
11582;SDS011;34299;50.820;4.548;2022-08-03T06:30:30;1.47;;;1.23;;
11582;SDS011;34299;50.820;4.548;2022-08-03T06:32:57;2.67;;;1.67;;
11582;SDS011;34299;50.820;4.548;2022-08-03T06:35:24;5.10;;;1.80;;
11582;SDS011;34299;50.820;4.548;2022-08-03T06:37:52;1.70;;;1.30;;
11582;SDS011;34299;50.820;4.548;2022-08-03T06:40:21;2.67;;;1.30;;
11582;SDS011;34299;50.820;4.548;2022-08-03T06:42:53;3.70;;;1.40;;
11582;SDS011;34299;50.820;4.548;2022-08-03T06:45:20;2.43;;;1.37;;
11582;SDS011;34299;50.820;4.548;2022-08-03T06:47:58;2.30;;;1.37;;
11582;SDS011;34299;50.820;4.548;2022-08-03T06:50:25;3.37;;;1.30;;
11582;SDS011;34299;50.820;4.548;2022-08-03T06:52:52;3.57;;;1.20;;
11582;SDS011;34299;50.820;4.548;2022-08-03T06:55:21;2.03;;;1.10;;
11582;SDS011;34299;50.820;4.548;2022-08-03T06:57:48;2.53;;;1.30;;
11582;SDS011;34299;50.820;4.548;2022-08-03T07:00:16;1.00;;;0.97;;
11582;SDS011;34299;50.820;4.548;2022-08-03T07:02:43;2.43;;;0.93;;
11582;SDS011;34299;50.820;4.548;2022-08-03T07:05:10;5.63;;;1.33;;
11582;SDS011;34299;50.820;4.548;2022-08-03T07:07:38;1.77;;;1.40;;
11582;SDS011;34299;50.820;4.548;2022-08-03T07:10:06;2.27;;;1.57;;
11582;SDS011;34299;50.820;4.548;2022-08-03T07:12:35;2.23;;;1.20;;
11582;SDS011;34299;50.820;4.548;2022-08-03T07:15:03;2.63;;;1.13;;
11582;SDS011;34299;50.820;4.548;2022-08-03T07:17:31;2.50;;;1.30;;
11582;SDS011;34299;50.820;4.548;2022-08-03T07:19:58;1.10;;;0.90;;
11582;SDS011;34299;50.820;4.548;2022-08-03T07:22:26;3.67;;;1.27;;
11582;SDS011;34299;50.820;4.548;2022-08-03T07:24:54;2.10;;;1.20;;
11582;SDS011;34299;50.820;4.548;2022-08-03T07:27:21;1.63;;;1.03;;
11582;SDS011;34299;50.820;4.548;2022-08-03T07:29:52;3.70;;;1.30;;
11582;SDS011;34299;50.820;4.548;2022-08-03T07:32:19;1.33;;;1.07;;
11582;SDS011;34299;50.820;4.548;2022-08-03T07:34:46;4.10;;;1.00;;
11582;SDS011;34299;50.820;4.548;2022-08-03T07:37:13;3.50;;;1.17;;
11582;SDS011;34299;50.820;4.548;2022-08-03T07:39:41;2.23;;;1.33;;
11582;SDS011;34299;50.820;4.548;2022-08-03T07:42:08;1.50;;;1.00;;
11582;SDS011;34299;50.820;4.548;2022-08-03T07:44:35;0.97;;;0.70;;
11582;SDS011;34299;50.820;4.548;2022-08-03T07:47:05;2.47;;;1.23;;
11582;SDS011;34299;50.820;4.548;2022-08-03T07:49:32;3.67;;;1.13;;
11582;SDS011;34299;50.820;4.548;2022-08-03T07:51:59;2.17;;;1.20;;
11582;SDS011;34299;50.820;4.548;2022-08-03T07:54:45;3.53;;;1.00;;
11582;SDS011;34299;50.820;4.548;2022-08-03T07:57:12;3.90;;;1.30;;
11582;SDS011;34299;50.820;4.548;2022-08-03T07:59:39;4.50;;;1.13;;
11582;SDS011;34299;50.820;4.548;2022-08-03T08:02:10;3.37;;;1.07;;
11582;SDS011;34299;50.820;4.548;2022-08-03T08:04:38;1.93;;;1.03;;
11582;SDS011;34299;50.820;4.548;2022-08-03T08:07:06;3.40;;;1.17;;
11582;SDS011;34299;50.820;4.548;2022-08-03T08:09:33;2.93;;;1.00;;
11582;SDS011;34299;50.820;4.548;2022-08-03T08:12:00;3.73;;;1.23;;
11582;SDS011;34299;50.820;4.548;2022-08-03T08:14:27;2.97;;;1.60;;
11582;SDS011;34299;50.820;4.548;2022-08-03T08:16:55;2.70;;;1.10;;
11582;SDS011;34299;50.820;4.548;2022-08-03T08:19:23;2.70;;;1.20;;
11582;SDS011;34299;50.820;4.548;2022-08-03T08:21:50;4.07;;;1.23;;
11582;SDS011;34299;50.820;4.548;2022-08-03T08:24:18;1.40;;;1.00;;
11582;SDS011;34299;50.820;4.548;2022-08-03T08:26:45;3.20;;;1.10;;
11582;SDS011;34299;50.820;4.548;2022-08-03T08:29:12;3.63;;;1.37;;
11582;SDS011;34299;50.820;4.548;2022-08-03T08:31:39;5.00;;;1.27;;
11582;SDS011;34299;50.820;4.548;2022-08-03T08:34:07;2.90;;;1.10;;
11582;SDS011;34299;50.820;4.548;2022-08-03T08:36:36;5.67;;;1.30;;
11582;SDS011;34299;50.820;4.548;2022-08-03T08:39:03;2.50;;;1.37;;
11582;SDS011;34299;50.820;4.548;2022-08-03T08:41:30;5.80;;;1.57;;
11582;SDS011;34299;50.820;4.548;2022-08-03T08:43:59;2.27;;;1.27;;
11582;SDS011;34299;50.820;4.548;2022-08-03T08:46:26;6.77;;;1.50;;
11582;SDS011;34299;50.820;4.548;2022-08-03T08:48:54;4.00;;;0.90;;
11582;SDS011;34299;50.820;4.548;2022-08-03T08:51:22;6.43;;;1.53;;
11582;SDS011;34299;50.820;4.548;2022-08-03T08:53:54;1.93;;;1.03;;
11582;SDS011;34299;50.820;4.548;2022-08-03T08:56:24;2.30;;;0.90;;
11582;SDS011;34299;50.820;4.548;2022-08-03T08:58:52;2.90;;;0.80;;
11582;SDS011;34299;50.820;4.548;2022-08-03T09:01:20;2.27;;;0.90;;
11582;SDS011;34299;50.820;4.548;2022-08-03T09:03:47;3.17;;;0.90;;
11582;SDS011;34299;50.820;4.548;2022-08-03T09:06:15;4.53;;;1.10;;
11582;SDS011;34299;50.820;4.548;2022-08-03T09:08:42;2.37;;;0.90;;
11582;SDS011;34299;50.820;4.548;2022-08-03T09:11:11;3.57;;;0.90;;
11582;SDS011;34299;50.820;4.548;2022-08-03T09:13:38;2.47;;;1.20;;
11582;SDS011;34299;50.820;4.548;2022-08-03T09:16:10;3.47;;;1.53;;
11582;SDS011;34299;50.820;4.548;2022-08-03T09:18:37;3.30;;;0.90;;
11582;SDS011;34299;50.820;4.548;2022-08-03T09:21:11;4.57;;;1.00;;
11582;SDS011;34299;50.820;4.548;2022-08-03T09:23:42;3.03;;;1.10;;
11582;SDS011;34299;50.820;4.548;2022-08-03T09:26:12;1.70;;;0.87;;
11582;SDS011;34299;50.820;4.548;2022-08-03T09:28:39;9.00;;;1.10;;
11582;SDS011;34299;50.820;4.548;2022-08-03T09:31:07;2.57;;;1.00;;
11582;SDS011;34299;50.820;4.548;2022-08-03T09:33:34;4.43;;;1.00;;
11582;SDS011;34299;50.820;4.548;2022-08-03T09:38:59;2.10;;;1.00;;
11582;SDS011;34299;50.820;4.548;2022-08-03T09:41:30;4.17;;;1.27;;
11582;SDS011;34299;50.820;4.548;2022-08-03T09:43:57;3.20;;;1.33;;
11582;SDS011;34299;50.820;4.548;2022-08-03T09:46:24;4.30;;;0.90;;
11582;SDS011;34299;50.820;4.548;2022-08-03T09:49:07;3.17;;;1.20;;
11582;SDS011;34299;50.820;4.548;2022-08-03T09:51:34;4.33;;;1.03;;
11582;SDS011;34299;50.820;4.548;2022-08-03T09:54:02;3.97;;;1.20;;
11582;SDS011;34299;50.820;4.548;2022-08-03T09:56:40;1.67;;;0.90;;
11582;SDS011;34299;50.820;4.548;2022-08-03T09:59:08;2.63;;;1.20;;
11582;SDS011;34299;50.820;4.548;2022-08-03T10:01:35;2.40;;;0.97;;
11582;SDS011;34299;50.820;4.548;2022-08-03T10:04:05;5.03;;;1.07;;
11582;SDS011;34299;50.820;4.548;2022-08-03T10:06:37;2.73;;;1.23;;
11582;SDS011;34299;50.820;4.548;2022-08-03T10:09:05;2.10;;;0.93;;
11582;SDS011;34299;50.820;4.548;2022-08-03T10:11:32;3.90;;;0.97;;
11582;SDS011;34299;50.820;4.548;2022-08-03T10:14:02;0.70;;;0.70;;
11582;SDS011;34299;50.820;4.548;2022-08-03T10:16:31;3.17;;;1.07;;
11582;SDS011;34299;50.820;4.548;2022-08-03T10:18:59;4.37;;;1.17;;
11582;SDS011;34299;50.820;4.548;2022-08-03T10:21:27;4.33;;;1.27;;
11582;SDS011;34299;50.820;4.548;2022-08-03T10:23:55;1.90;;;1.17;;
11582;SDS011;34299;50.820;4.548;2022-08-03T10:26:22;2.77;;;1.23;;
11582;SDS011;34299;50.820;4.548;2022-08-03T10:28:52;0.83;;;0.83;;
11582;SDS011;34299;50.820;4.548;2022-08-03T10:31:21;6.43;;;0.90;;
11582;SDS011;34299;50.820;4.548;2022-08-03T10:33:50;1.53;;;1.10;;
11582;SDS011;34299;50.820;4.548;2022-08-03T10:36:17;1.60;;;0.93;;
11582;SDS011;34299;50.820;4.548;2022-08-03T10:38:46;2.83;;;1.10;;
11582;SDS011;34299;50.820;4.548;2022-08-03T10:41:17;4.63;;;1.00;;
11582;SDS011;34299;50.820;4.548;2022-08-03T10:43:46;6.13;;;0.90;;
11582;SDS011;34299;50.820;4.548;2022-08-03T10:46:16;2.37;;;0.70;;
11582;SDS011;34299;50.820;4.548;2022-08-03T10:48:46;1.60;;;1.30;;
11582;SDS011;34299;50.820;4.548;2022-08-03T10:51:14;3.13;;;0.90;;
11582;SDS011;34299;50.820;4.548;2022-08-03T10:53:42;4.60;;;1.27;;
11582;SDS011;34299;50.820;4.548;2022-08-03T10:59:09;3.37;;;1.00;;
11582;SDS011;34299;50.820;4.548;2022-08-03T11:01:49;1.83;;;1.10;;
11582;SDS011;34299;50.820;4.548;2022-08-03T11:04:18;2.07;;;0.90;;
11582;SDS011;34299;50.820;4.548;2022-08-03T11:06:46;1.83;;;0.93;;
11582;SDS011;34299;50.820;4.548;2022-08-03T11:09:14;1.30;;;1.00;;
11582;SDS011;34299;50.820;4.548;2022-08-03T11:11:42;2.47;;;0.97;;
11582;SDS011;34299;50.820;4.548;2022-08-03T11:14:11;3.17;;;1.17;;
11582;SDS011;34299;50.820;4.548;2022-08-03T11:16:39;4.23;;;1.10;;
11582;SDS011;34299;50.820;4.548;2022-08-03T11:19:07;1.03;;;0.93;;
11582;SDS011;34299;50.820;4.548;2022-08-03T11:21:55;1.20;;;0.87;;
11582;SDS011;34299;50.820;4.548;2022-08-03T11:27:16;3.03;;;1.13;;
11582;SDS011;34299;50.820;4.548;2022-08-03T11:29:52;3.03;;;1.17;;
11582;SDS011;34299;50.820;4.548;2022-08-03T11:35:06;3.20;;;1.10;;
11582;SDS011;34299;50.820;4.548;2022-08-03T11:37:35;2.43;;;1.00;;
11582;SDS011;34299;50.820;4.548;2022-08-03T11:40:02;1.37;;;0.90;;
11582;SDS011;34299;50.820;4.548;2022-08-03T11:42:39;2.43;;;0.90;;
11582;SDS011;34299;50.820;4.548;2022-08-03T11:45:09;1.33;;;0.93;;
11582;SDS011;34299;50.820;4.548;2022-08-03T11:47:37;4.30;;;0.80;;
11582;SDS011;34299;50.820;4.548;2022-08-03T11:50:05;5.73;;;1.20;;
11582;SDS011;34299;50.820;4.548;2022-08-03T11:52:34;1.20;;;1.10;;
11582;SDS011;34299;50.820;4.548;2022-08-03T11:55:02;2.40;;;1.00;;
11582;SDS011;34299;50.820;4.548;2022-08-03T11:57:34;2.33;;;0.93;;
11582;SDS011;34299;50.820;4.548;2022-08-03T12:00:01;0.90;;;0.50;;
11582;SDS011;34299;50.820;4.548;2022-08-03T12:02:29;3.83;;;1.20;;
11582;SDS011;34299;50.820;4.548;2022-08-03T12:04:57;1.73;;;0.90;;
11582;SDS011;34299;50.820;4.548;2022-08-03T12:07:25;1.10;;;0.70;;
11582;SDS011;34299;50.820;4.548;2022-08-03T12:10:08;2.53;;;1.00;;
11582;SDS011;34299;50.820;4.548;2022-08-03T12:12:35;1.70;;;1.03;;
11582;SDS011;34299;50.820;4.548;2022-08-03T12:15:03;1.90;;;0.90;;
11582;SDS011;34299;50.820;4.548;2022-08-03T12:17:31;1.23;;;1.00;;
11582;SDS011;34299;50.820;4.548;2022-08-03T12:19:59;1.30;;;0.90;;
11582;SDS011;34299;50.820;4.548;2022-08-03T12:22:30;2.27;;;1.00;;
11582;SDS011;34299;50.820;4.548;2022-08-03T12:24:57;1.17;;;1.10;;
11582;SDS011;34299;50.820;4.548;2022-08-03T12:27:26;3.40;;;1.00;;
11582;SDS011;34299;50.820;4.548;2022-08-03T12:29:54;2.60;;;1.07;;
11582;SDS011;34299;50.820;4.548;2022-08-03T12:32:21;2.73;;;1.00;;
11582;SDS011;34299;50.820;4.548;2022-08-03T12:34:49;3.43;;;1.07;;
11582;SDS011;34299;50.820;4.548;2022-08-03T12:37:17;1.57;;;0.90;;
11582;SDS011;34299;50.820;4.548;2022-08-03T12:39:48;1.93;;;0.90;;
11582;SDS011;34299;50.820;4.548;2022-08-03T12:42:16;3.20;;;1.00;;
11582;SDS011;34299;50.820;4.548;2022-08-03T12:44:44;1.27;;;0.70;;
11582;SDS011;34299;50.820;4.548;2022-08-03T12:47:13;3.00;;;1.47;;
11582;SDS011;34299;50.820;4.548;2022-08-03T12:49:44;0.83;;;0.83;;
11582;SDS011;34299;50.820;4.548;2022-08-03T12:52:11;4.50;;;1.30;;
11582;SDS011;34299;50.820;4.548;2022-08-03T12:54:39;2.13;;;1.00;;
11582;SDS011;34299;50.820;4.548;2022-08-03T12:57:07;0.87;;;0.87;;
11582;SDS011;34299;50.820;4.548;2022-08-03T12:59:35;2.20;;;1.00;;
11582;SDS011;34299;50.820;4.548;2022-08-03T13:02:12;1.33;;;0.80;;
11582;SDS011;34299;50.820;4.548;2022-08-03T13:04:39;2.20;;;1.80;;
11582;SDS011;34299;50.820;4.548;2022-08-03T13:07:07;1.10;;;0.80;;
11582;SDS011;34299;50.820;4.548;2022-08-03T13:09:39;1.87;;;1.00;;
11582;SDS011;34299;50.820;4.548;2022-08-03T13:12:08;1.00;;;0.90;;
11582;SDS011;34299;50.820;4.548;2022-08-03T13:14:35;1.10;;;0.85;;
11582;SDS011;34299;50.820;4.548;2022-08-03T13:17:03;1.10;;;1.00;;
11582;SDS011;34299;50.820;4.548;2022-08-03T13:19:31;3.05;;;1.10;;
11582;SDS011;34299;50.820;4.548;2022-08-03T13:21:59;1.08;;;0.93;;
11582;SDS011;34299;50.820;4.548;2022-08-03T13:24:27;1.30;;;1.05;;
11582;SDS011;34299;50.820;4.548;2022-08-03T13:26:54;2.08;;;0.93;;
11582;SDS011;34299;50.820;4.548;2022-08-03T13:29:21;3.00;;;0.82;;
11582;SDS011;34299;50.820;4.548;2022-08-03T13:31:48;2.40;;;0.85;;
11582;SDS011;34299;50.820;4.548;2022-08-03T13:34:15;1.88;;;1.10;;
11582;SDS011;34299;50.820;4.548;2022-08-03T13:36:44;2.45;;;0.98;;
11582;SDS011;34299;50.820;4.548;2022-08-03T13:39:11;1.77;;;0.95;;
11582;SDS011;34299;50.820;4.548;2022-08-03T13:41:39;1.95;;;0.82;;
11582;SDS011;34299;50.820;4.548;2022-08-03T13:44:06;1.02;;;0.80;;
11582;SDS011;34299;50.820;4.548;2022-08-03T13:46:33;1.08;;;0.90;;
11582;SDS011;34299;50.820;4.548;2022-08-03T13:49:00;2.60;;;0.90;;
11582;SDS011;34299;50.820;4.548;2022-08-03T13:51:27;1.17;;;0.93;;
11582;SDS011;34299;50.820;4.548;2022-08-03T13:53:56;1.48;;;0.90;;
11582;SDS011;34299;50.820;4.548;2022-08-03T13:56:24;1.38;;;0.88;;
11582;SDS011;34299;50.820;4.548;2022-08-03T13:58:51;1.20;;;0.88;;
11582;SDS011;34299;50.820;4.548;2022-08-03T14:01:18;1.67;;;0.80;;
11582;SDS011;34299;50.820;4.548;2022-08-03T14:03:45;4.28;;;0.85;;
11582;SDS011;34299;50.820;4.548;2022-08-03T14:06:16;1.70;;;0.85;;
11582;SDS011;34299;50.820;4.548;2022-08-03T14:08:43;1.55;;;0.93;;
11582;SDS011;34299;50.820;4.548;2022-08-03T14:11:13;2.40;;;0.88;;
11582;SDS011;34299;50.820;4.548;2022-08-03T14:13:41;4.32;;;1.52;;
11582;SDS011;34299;50.820;4.548;2022-08-03T14:16:08;0.95;;;0.85;;
11582;SDS011;34299;50.820;4.548;2022-08-03T14:18:35;1.13;;;0.90;;
11582;SDS011;34299;50.820;4.548;2022-08-03T14:21:03;2.40;;;0.80;;
11582;SDS011;34299;50.820;4.548;2022-08-03T14:23:30;6.00;;;0.98;;
11582;SDS011;34299;50.820;4.548;2022-08-03T14:25:58;0.88;;;0.55;;
11582;SDS011;34299;50.820;4.548;2022-08-03T14:28:26;1.35;;;0.70;;
11582;SDS011;34299;50.820;4.548;2022-08-03T14:30:54;1.40;;;0.88;;
11582;SDS011;34299;50.820;4.548;2022-08-03T14:33:21;1.40;;;1.10;;
11582;SDS011;34299;50.820;4.548;2022-08-03T14:35:49;2.63;;;0.90;;
11582;SDS011;34299;50.820;4.548;2022-08-03T14:38:16;3.92;;;1.40;;
11582;SDS011;34299;50.820;4.548;2022-08-03T14:40:43;3.40;;;0.82;;
11582;SDS011;34299;50.820;4.548;2022-08-03T14:43:10;1.02;;;0.82;;
11582;SDS011;34299;50.820;4.548;2022-08-03T14:45:39;2.40;;;1.30;;
11582;SDS011;34299;50.820;4.548;2022-08-03T14:48:06;2.63;;;1.30;;
11582;SDS011;34299;50.820;4.548;2022-08-03T14:50:34;1.20;;;1.10;;
11582;SDS011;34299;50.820;4.548;2022-08-03T14:53:01;1.33;;;1.00;;
11582;SDS011;34299;50.820;4.548;2022-08-03T14:55:28;0.95;;;0.82;;
11582;SDS011;34299;50.820;4.548;2022-08-03T14:57:56;1.92;;;0.65;;
11582;SDS011;34299;50.820;4.548;2022-08-03T15:00:26;2.28;;;0.70;;
11582;SDS011;34299;50.820;4.548;2022-08-03T15:02:55;2.45;;;0.73;;
11582;SDS011;34299;50.820;4.548;2022-08-03T15:05:22;0.85;;;0.60;;
11582;SDS011;34299;50.820;4.548;2022-08-03T15:07:50;1.15;;;0.75;;